createdAt,value
2022-12-06T00:13:18.767Z,963.76
2022-12-06T00:28:21.186Z,963.43
2022-12-06T00:43:23.429Z,963.54
2022-12-06T00:58:25.747Z,963.57
2022-12-06T01:13:28.255Z,963.5
2022-12-06T01:28:30.550Z,963.51
2022-12-06T01:43:32.907Z,963.42
2022-12-06T01:58:35.216Z,963.36
2022-12-06T02:13:37.507Z,963.33
2022-12-06T02:28:39.776Z,963.38
2022-12-06T02:43:42.089Z,963.25
2022-12-06T02:58:44.383Z,963.38
2022-12-06T03:13:46.656Z,963.65
2022-12-06T03:28:48.901Z,963.69
2022-12-06T03:43:51.340Z,963.65
2022-12-06T03:58:53.687Z,963.69
2022-12-06T04:13:56.017Z,963.84
2022-12-06T04:28:58.294Z,963.75
2022-12-06T04:44:00.524Z,963.66
2022-12-06T04:59:02.854Z,963.64
2022-12-06T05:14:05.200Z,963.52
2022-12-06T05:29:07.461Z,963.58
2022-12-06T05:44:09.969Z,963.64
2022-12-06T05:59:12.338Z,963.48
2022-12-06T06:14:14.607Z,963.49
2022-12-06T06:29:17.109Z,963.58
2022-12-06T06:44:19.438Z,963.59
2022-12-06T06:59:21.805Z,963.69
2022-12-06T07:14:24.097Z,963.56
2022-12-06T07:29:26.402Z,963.54
2022-12-06T07:44:28.900Z,963.5
2022-12-06T07:59:31.207Z,963.34
2022-12-06T08:14:33.575Z,963.36
2022-12-06T08:29:35.858Z,963.3
2022-12-06T08:44:38.143Z,963.21
2022-12-06T08:59:40.443Z,963.19
2022-12-06T09:14:42.884Z,963.22
2022-12-06T09:29:45.240Z,963.3
2022-12-06T09:44:47.510Z,963.27
2022-12-06T09:59:49.834Z,963.2
2022-12-06T10:14:52.134Z,963.14
2022-12-06T10:29:54.494Z,963.19
2022-12-06T10:44:56.820Z,963.09
2022-12-06T11:00:03.078Z,962.97
2022-12-06T11:15:06.122Z,962.97
2022-12-06T11:30:08.456Z,962.95
2022-12-06T11:45:10.756Z,963
2022-12-06T12:00:13.007Z,963.01
2022-12-06T12:15:15.357Z,962.97
2022-12-06T12:30:17.645Z,962.71
2022-12-06T12:45:19.964Z,962.67
2022-12-06T13:00:22.309Z,962.8
2022-12-06T13:15:24.647Z,962.84
2022-12-06T13:30:27.042Z,962.77
2022-12-06T13:45:29.418Z,962.69
2022-12-06T14:00:31.717Z,962.75
2022-12-06T14:15:33.967Z,962.74
2022-12-06T14:30:36.310Z,962.76
2022-12-06T14:45:38.689Z,962.9
2022-12-06T15:00:40.967Z,962.99
2022-12-06T15:15:43.523Z,963.1
2022-12-06T15:30:45.931Z,963.11
2022-12-06T15:45:48.255Z,963.16
2022-12-06T16:00:50.539Z,963.12
2022-12-06T16:15:52.911Z,963.24
2022-12-06T16:30:55.310Z,963.51
2022-12-06T16:45:57.596Z,963.63
2022-12-06T17:00:59.984Z,963.63
2022-12-06T17:16:02.485Z,963.87
2022-12-06T17:31:04.839Z,963.98
2022-12-06T17:46:07.279Z,964.1
2022-12-06T18:01:09.744Z,964.12
2022-12-06T18:16:12.068Z,964.22
2022-12-06T18:31:14.389Z,964.24
2022-12-06T18:46:16.848Z,964.38
2022-12-06T19:01:19.514Z,964.3
2022-12-06T19:16:21.928Z,964.21
2022-12-06T19:31:24.216Z,964.03
2022-12-06T19:46:26.696Z,963.97
2022-12-06T20:01:29.071Z,963.94
2022-12-06T20:16:31.366Z,964.01
2022-12-06T20:31:33.818Z,963.95
2022-12-06T20:46:36.239Z,963.96
2022-12-06T21:01:38.685Z,963.91
2022-12-06T21:16:41.068Z,963.69
2022-12-06T21:31:43.541Z,963.77
2022-12-06T21:46:45.981Z,963.86
2022-12-06T22:01:48.399Z,963.9
2022-12-06T22:16:50.762Z,964.1
2022-12-06T22:31:53.107Z,964.23
2022-12-06T22:46:55.576Z,964.38
2022-12-06T23:01:57.992Z,964.58
2022-12-06T23:17:00.393Z,964.69
2022-12-06T23:32:02.793Z,964.9
2022-12-06T23:47:05.079Z,965.05
